aviador You're here:

DAOI Decoded Metar

ECH-CHELIFF in ALGERIA
Report Time2018-07-17 11:00:00
UTC Time2018-07-17 11:42:20
Flight Rules vfr VFR
Wind070° at 08 kt
W.Decomp.*RWY 08: 7.9 kt HW 1.4 kt LCW
W.Rank070° ranks 17
Current wind is above 070° avg. (7.8)
Visibility9999 m
Phenomena:N/A
Clouds:Few 030 Hf
Expected CloudBase > 8,000 ft AGL from Temp-Dew spread
CeilingNone
Temp35°C (ISA +21)
Dew Point15°C (30% RH)
Heat Index34.7°C
AAT33.7°C
QNH1015 hPa
Density Alt3,005 ft
Elevation469 ft
Report Wrong Elevation
Raw Report
METAR DAOI 171100Z 07008KT 9999 FEW030 35/15 Q1015=

Extra information for DAOI:More info

Metar Taf Metar & Taf Last 4 Metars F.Rules Stats Wind Profile Meteogram Temp Stats Airport Information Weather charts Add Link Nearby VenuesMetar ALERT Operation Metar Decoded Social comments